sensor_id;sensor_type;location;lat;lon;timestamp;P1;durP1;ratioP1;P2;durP2;ratioP2
2177;SDS011;1095;50.992;6.798;2023-05-17T00:00:05;10.20;;;4.80;;
2177;SDS011;1095;50.992;6.798;2023-05-17T00:02:33;7.45;;;4.60;;
2177;SDS011;1095;50.992;6.798;2023-05-17T00:05:00;8.77;;;4.38;;
2177;SDS011;1095;50.992;6.798;2023-05-17T00:07:27;10.90;;;4.72;;
2177;SDS011;1095;50.992;6.798;2023-05-17T00:09:53;8.98;;;4.47;;
2177;SDS011;1095;50.992;6.798;2023-05-17T00:12:21;12.27;;;5.00;;
2177;SDS011;1095;50.992;6.798;2023-05-17T00:14:48;8.73;;;4.55;;
2177;SDS011;1095;50.992;6.798;2023-05-17T00:17:15;9.15;;;4.65;;
2177;SDS011;1095;50.992;6.798;2023-05-17T00:19:41;7.70;;;4.35;;
2177;SDS011;1095;50.992;6.798;2023-05-17T00:22:08;7.95;;;4.55;;
2177;SDS011;1095;50.992;6.798;2023-05-17T00:24:35;10.02;;;4.53;;
2177;SDS011;1095;50.992;6.798;2023-05-17T00:27:01;8.13;;;4.68;;
2177;SDS011;1095;50.992;6.798;2023-05-17T00:29:29;7.32;;;5.10;;
2177;SDS011;1095;50.992;6.798;2023-05-17T00:31:56;7.45;;;4.47;;
2177;SDS011;1095;50.992;6.798;2023-05-17T00:34:23;7.57;;;5.10;;
2177;SDS011;1095;50.992;6.798;2023-05-17T00:36:49;8.50;;;5.18;;
2177;SDS011;1095;50.992;6.798;2023-05-17T00:39:16;11.50;;;4.85;;
2177;SDS011;1095;50.992;6.798;2023-05-17T00:41:42;10.57;;;5.20;;
2177;SDS011;1095;50.992;6.798;2023-05-17T00:44:10;6.63;;;4.70;;
2177;SDS011;1095;50.992;6.798;2023-05-17T00:46:41;12.27;;;5.25;;
2177;SDS011;1095;50.992;6.798;2023-05-17T00:49:07;11.60;;;5.22;;
2177;SDS011;1095;50.992;6.798;2023-05-17T00:51:34;15.52;;;5.95;;
2177;SDS011;1095;50.992;6.798;2023-05-17T00:54:01;9.95;;;5.47;;
2177;SDS011;1095;50.992;6.798;2023-05-17T00:56:30;10.55;;;4.95;;
2177;SDS011;1095;50.992;6.798;2023-05-17T00:58:56;10.40;;;5.35;;
2177;SDS011;1095;50.992;6.798;2023-05-17T01:01:24;11.20;;;5.72;;
2177;SDS011;1095;50.992;6.798;2023-05-17T01:03:53;9.40;;;5.30;;
2177;SDS011;1095;50.992;6.798;2023-05-17T01:06:20;9.90;;;5.18;;
2177;SDS011;1095;50.992;6.798;2023-05-17T01:08:47;13.57;;;5.18;;
2177;SDS011;1095;50.992;6.798;2023-05-17T01:11:17;8.43;;;5.55;;
2177;SDS011;1095;50.992;6.798;2023-05-17T01:13:57;11.77;;;5.88;;
2177;SDS011;1095;50.992;6.798;2023-05-17T01:16:34;13.80;;;5.72;;
2177;SDS011;1095;50.992;6.798;2023-05-17T01:19:09;12.50;;;6.28;;
2177;SDS011;1095;50.992;6.798;2023-05-17T01:21:53;10.30;;;5.05;;
2177;SDS011;1095;50.992;6.798;2023-05-17T01:24:32;7.25;;;5.90;;
2177;SDS011;1095;50.992;6.798;2023-05-17T01:27:09;12.07;;;5.03;;
2177;SDS011;1095;50.992;6.798;2023-05-17T01:29:39;12.85;;;5.40;;
2177;SDS011;1095;50.992;6.798;2023-05-17T01:32:08;10.15;;;5.90;;
2177;SDS011;1095;50.992;6.798;2023-05-17T01:34:36;12.38;;;6.25;;
2177;SDS011;1095;50.992;6.798;2023-05-17T01:37:02;10.95;;;6.20;;
2177;SDS011;1095;50.992;6.798;2023-05-17T01:39:29;11.93;;;6.47;;
2177;SDS011;1095;50.992;6.798;2023-05-17T01:41:56;14.98;;;6.55;;
2177;SDS011;1095;50.992;6.798;2023-05-17T01:44:32;12.38;;;6.30;;
2177;SDS011;1095;50.992;6.798;2023-05-17T01:47:08;17.42;;;7.70;;
2177;SDS011;1095;50.992;6.798;2023-05-17T01:49:39;18.05;;;7.38;;
2177;SDS011;1095;50.992;6.798;2023-05-17T01:52:11;13.48;;;7.20;;
2177;SDS011;1095;50.992;6.798;2023-05-17T01:54:45;12.45;;;7.38;;
2177;SDS011;1095;50.992;6.798;2023-05-17T01:57:15;13.38;;;7.57;;
2177;SDS011;1095;50.992;6.798;2023-05-17T01:59:46;12.65;;;7.68;;
2177;SDS011;1095;50.992;6.798;2023-05-17T02:02:15;20.42;;;8.45;;
2177;SDS011;1095;50.992;6.798;2023-05-17T02:04:41;16.92;;;7.50;;
2177;SDS011;1095;50.992;6.798;2023-05-17T02:07:08;19.23;;;8.32;;
2177;SDS011;1095;50.992;6.798;2023-05-17T02:09:34;14.38;;;7.93;;
2177;SDS011;1095;50.992;6.798;2023-05-17T02:12:01;13.60;;;8.80;;
2177;SDS011;1095;50.992;6.798;2023-05-17T02:14:28;14.05;;;8.45;;
2177;SDS011;1095;50.992;6.798;2023-05-17T02:16:56;13.93;;;7.53;;
2177;SDS011;1095;50.992;6.798;2023-05-17T02:19:22;18.25;;;9.07;;
2177;SDS011;1095;50.992;6.798;2023-05-17T02:21:49;17.52;;;8.45;;
2177;SDS011;1095;50.992;6.798;2023-05-17T02:24:15;15.38;;;8.88;;
2177;SDS011;1095;50.992;6.798;2023-05-17T02:26:42;14.77;;;8.65;;
2177;SDS011;1095;50.992;6.798;2023-05-17T02:29:09;19.50;;;8.98;;
2177;SDS011;1095;50.992;6.798;2023-05-17T02:31:36;15.80;;;8.32;;
2177;SDS011;1095;50.992;6.798;2023-05-17T02:34:04;20.70;;;9.20;;
2177;SDS011;1095;50.992;6.798;2023-05-17T02:36:31;18.55;;;9.07;;
2177;SDS011;1095;50.992;6.798;2023-05-17T02:38:58;19.52;;;9.18;;
2177;SDS011;1095;50.992;6.798;2023-05-17T02:41:25;19.45;;;9.25;;
2177;SDS011;1095;50.992;6.798;2023-05-17T02:43:52;24.77;;;9.35;;
2177;SDS011;1095;50.992;6.798;2023-05-17T02:46:18;17.20;;;8.50;;
2177;SDS011;1095;50.992;6.798;2023-05-17T02:48:45;18.25;;;8.95;;
2177;SDS011;1095;50.992;6.798;2023-05-17T02:51:13;19.10;;;9.43;;
2177;SDS011;1095;50.992;6.798;2023-05-17T02:53:40;15.55;;;8.80;;
2177;SDS011;1095;50.992;6.798;2023-05-17T02:56:06;22.90;;;9.77;;
2177;SDS011;1095;50.992;6.798;2023-05-17T02:58:33;20.10;;;10.18;;
2177;SDS011;1095;50.992;6.798;2023-05-17T03:00:59;21.00;;;9.23;;
2177;SDS011;1095;50.992;6.798;2023-05-17T03:03:28;19.10;;;9.73;;
2177;SDS011;1095;50.992;6.798;2023-05-17T03:05:58;17.98;;;10.10;;
2177;SDS011;1095;50.992;6.798;2023-05-17T03:08:26;15.98;;;9.10;;
2177;SDS011;1095;50.992;6.798;2023-05-17T03:10:53;20.02;;;9.02;;
2177;SDS011;1095;50.992;6.798;2023-05-17T03:13:20;16.08;;;9.57;;
2177;SDS011;1095;50.992;6.798;2023-05-17T03:15:46;17.73;;;9.48;;
2177;SDS011;1095;50.992;6.798;2023-05-17T03:18:13;20.85;;;8.93;;
2177;SDS011;1095;50.992;6.798;2023-05-17T03:20:40;22.58;;;9.45;;
2177;SDS011;1095;50.992;6.798;2023-05-17T03:23:07;19.00;;;9.65;;
2177;SDS011;1095;50.992;6.798;2023-05-17T03:25:34;20.83;;;8.88;;
2177;SDS011;1095;50.992;6.798;2023-05-17T03:28:01;22.17;;;10.38;;
2177;SDS011;1095;50.992;6.798;2023-05-17T03:30:28;19.63;;;9.48;;
2177;SDS011;1095;50.992;6.798;2023-05-17T03:32:54;23.42;;;9.50;;
2177;SDS011;1095;50.992;6.798;2023-05-17T03:35:21;19.95;;;8.80;;
2177;SDS011;1095;50.992;6.798;2023-05-17T03:37:48;16.30;;;8.68;;
2177;SDS011;1095;50.992;6.798;2023-05-17T03:40:14;19.23;;;9.13;;
2177;SDS011;1095;50.992;6.798;2023-05-17T03:42:42;19.48;;;8.85;;
2177;SDS011;1095;50.992;6.798;2023-05-17T03:45:10;19.92;;;9.40;;
2177;SDS011;1095;50.992;6.798;2023-05-17T03:47:37;21.65;;;10.18;;
2177;SDS011;1095;50.992;6.798;2023-05-17T03:50:04;14.35;;;8.68;;
2177;SDS011;1095;50.992;6.798;2023-05-17T03:52:31;18.67;;;9.55;;
2177;SDS011;1095;50.992;6.798;2023-05-17T03:54:58;23.40;;;10.07;;
2177;SDS011;1095;50.992;6.798;2023-05-17T03:57:24;22.45;;;10.07;;
2177;SDS011;1095;50.992;6.798;2023-05-17T03:59:52;23.60;;;10.73;;
2177;SDS011;1095;50.992;6.798;2023-05-17T04:02:19;24.60;;;9.48;;
2177;SDS011;1095;50.992;6.798;2023-05-17T04:04:49;22.23;;;9.48;;
2177;SDS011;1095;50.992;6.798;2023-05-17T04:07:16;24.75;;;11.32;;
2177;SDS011;1095;50.992;6.798;2023-05-17T04:09:44;21.08;;;10.57;;
2177;SDS011;1095;50.992;6.798;2023-05-17T04:12:10;27.88;;;11.27;;
2177;SDS011;1095;50.992;6.798;2023-05-17T04:14:39;23.95;;;10.98;;
2177;SDS011;1095;50.992;6.798;2023-05-17T04:17:07;18.60;;;10.38;;
2177;SDS011;1095;50.992;6.798;2023-05-17T04:19:34;23.15;;;10.77;;
2177;SDS011;1095;50.992;6.798;2023-05-17T04:22:00;23.33;;;10.52;;
2177;SDS011;1095;50.992;6.798;2023-05-17T04:24:27;20.52;;;11.05;;
2177;SDS011;1095;50.992;6.798;2023-05-17T04:26:53;18.52;;;10.45;;
2177;SDS011;1095;50.992;6.798;2023-05-17T04:29:23;19.00;;;9.88;;
2177;SDS011;1095;50.992;6.798;2023-05-17T04:31:50;23.92;;;11.75;;
2177;SDS011;1095;50.992;6.798;2023-05-17T04:34:18;16.77;;;10.68;;
2177;SDS011;1095;50.992;6.798;2023-05-17T04:36:46;18.60;;;10.60;;
2177;SDS011;1095;50.992;6.798;2023-05-17T04:39:13;20.40;;;10.35;;
2177;SDS011;1095;50.992;6.798;2023-05-17T04:41:39;22.42;;;10.45;;
2177;SDS011;1095;50.992;6.798;2023-05-17T04:44:06;22.13;;;10.63;;
2177;SDS011;1095;50.992;6.798;2023-05-17T04:46:32;20.90;;;11.30;;
2177;SDS011;1095;50.992;6.798;2023-05-17T04:48:59;25.98;;;10.95;;
2177;SDS011;1095;50.992;6.798;2023-05-17T04:51:28;24.73;;;11.18;;
2177;SDS011;1095;50.992;6.798;2023-05-17T04:56:38;22.17;;;11.02;;
2177;SDS011;1095;50.992;6.798;2023-05-17T04:59:31;23.75;;;11.93;;
2177;SDS011;1095;50.992;6.798;2023-05-17T05:02:00;27.50;;;13.32;;
2177;SDS011;1095;50.992;6.798;2023-05-17T05:04:26;29.67;;;16.50;;
2177;SDS011;1095;50.992;6.798;2023-05-17T05:06:54;32.22;;;15.45;;
2177;SDS011;1095;50.992;6.798;2023-05-17T05:09:21;34.00;;;15.35;;
2177;SDS011;1095;50.992;6.798;2023-05-17T05:11:47;30.90;;;12.10;;
2177;SDS011;1095;50.992;6.798;2023-05-17T05:14:14;23.33;;;11.38;;
2177;SDS011;1095;50.992;6.798;2023-05-17T05:16:41;27.58;;;11.20;;
2177;SDS011;1095;50.992;6.798;2023-05-17T05:19:07;25.50;;;10.70;;
2177;SDS011;1095;50.992;6.798;2023-05-17T05:21:34;20.15;;;11.48;;
2177;SDS011;1095;50.992;6.798;2023-05-17T05:24:02;28.73;;;12.80;;
2177;SDS011;1095;50.992;6.798;2023-05-17T05:26:29;28.60;;;11.77;;
2177;SDS011;1095;50.992;6.798;2023-05-17T05:28:55;29.73;;;11.93;;
2177;SDS011;1095;50.992;6.798;2023-05-17T05:31:22;24.75;;;11.82;;
2177;SDS011;1095;50.992;6.798;2023-05-17T05:33:49;29.27;;;13.32;;
2177;SDS011;1095;50.992;6.798;2023-05-17T05:36:15;26.80;;;12.02;;
2177;SDS011;1095;50.992;6.798;2023-05-17T05:38:42;33.47;;;12.68;;
2177;SDS011;1095;50.992;6.798;2023-05-17T05:41:10;26.88;;;11.88;;
2177;SDS011;1095;50.992;6.798;2023-05-17T05:43:37;32.55;;;12.85;;
2177;SDS011;1095;50.992;6.798;2023-05-17T05:46:03;27.02;;;13.38;;
2177;SDS011;1095;50.992;6.798;2023-05-17T05:48:31;31.55;;;12.75;;
2177;SDS011;1095;50.992;6.798;2023-05-17T05:50:58;23.63;;;12.93;;
2177;SDS011;1095;50.992;6.798;2023-05-17T05:53:24;26.50;;;12.90;;
2177;SDS011;1095;50.992;6.798;2023-05-17T05:55:51;30.02;;;14.10;;
2177;SDS011;1095;50.992;6.798;2023-05-17T05:58:19;23.05;;;13.02;;
2177;SDS011;1095;50.992;6.798;2023-05-17T06:00:46;33.55;;;12.55;;
2177;SDS011;1095;50.992;6.798;2023-05-17T06:03:12;26.25;;;13.98;;
2177;SDS011;1095;50.992;6.798;2023-05-17T06:05:40;26.60;;;12.48;;
2177;SDS011;1095;50.992;6.798;2023-05-17T06:08:06;27.83;;;12.75;;
2177;SDS011;1095;50.992;6.798;2023-05-17T06:10:33;25.08;;;12.27;;
2177;SDS011;1095;50.992;6.798;2023-05-17T06:13:00;26.52;;;13.30;;
2177;SDS011;1095;50.992;6.798;2023-05-17T06:15:29;27.05;;;14.02;;
2177;SDS011;1095;50.992;6.798;2023-05-17T06:17:56;28.42;;;14.55;;
2177;SDS011;1095;50.992;6.798;2023-05-17T06:20:23;27.20;;;15.70;;
2177;SDS011;1095;50.992;6.798;2023-05-17T06:22:49;21.63;;;15.07;;
2177;SDS011;1095;50.992;6.798;2023-05-17T06:25:16;27.27;;;15.50;;
2177;SDS011;1095;50.992;6.798;2023-05-17T06:27:43;29.48;;;16.05;;
2177;SDS011;1095;50.992;6.798;2023-05-17T06:30:10;27.42;;;15.65;;
2177;SDS011;1095;50.992;6.798;2023-05-17T06:32:39;30.30;;;15.25;;
2177;SDS011;1095;50.992;6.798;2023-05-17T06:35:06;25.38;;;15.18;;
2177;SDS011;1095;50.992;6.798;2023-05-17T06:37:35;26.35;;;15.68;;
2177;SDS011;1095;50.992;6.798;2023-05-17T06:40:01;27.63;;;15.02;;
2177;SDS011;1095;50.992;6.798;2023-05-17T06:42:30;25.02;;;14.90;;
2177;SDS011;1095;50.992;6.798;2023-05-17T06:44:56;28.77;;;15.02;;
2177;SDS011;1095;50.992;6.798;2023-05-17T06:47:23;28.73;;;14.10;;
2177;SDS011;1095;50.992;6.798;2023-05-17T06:49:51;26.13;;;13.85;;
2177;SDS011;1095;50.992;6.798;2023-05-17T06:52:18;22.02;;;13.32;;
2177;SDS011;1095;50.992;6.798;2023-05-17T06:54:45;24.40;;;14.38;;
2177;SDS011;1095;50.992;6.798;2023-05-17T06:57:11;21.10;;;13.55;;
2177;SDS011;1095;50.992;6.798;2023-05-17T06:59:38;19.70;;;12.80;;
2177;SDS011;1095;50.992;6.798;2023-05-17T07:02:05;23.95;;;12.70;;
2177;SDS011;1095;50.992;6.798;2023-05-17T07:04:31;23.20;;;12.93;;
2177;SDS011;1095;50.992;6.798;2023-05-17T07:06:59;23.67;;;13.52;;
2177;SDS011;1095;50.992;6.798;2023-05-17T07:09:26;31.38;;;13.65;;
2177;SDS011;1095;50.992;6.798;2023-05-17T07:11:53;21.23;;;12.27;;
2177;SDS011;1095;50.992;6.798;2023-05-17T07:14:19;23.50;;;11.40;;
2177;SDS011;1095;50.992;6.798;2023-05-17T07:16:46;20.67;;;11.20;;
2177;SDS011;1095;50.992;6.798;2023-05-17T07:19:13;24.73;;;10.43;;
2177;SDS011;1095;50.992;6.798;2023-05-17T07:21:39;18.95;;;9.18;;
2177;SDS011;1095;50.992;6.798;2023-05-17T07:24:08;17.35;;;7.97;;
2177;SDS011;1095;50.992;6.798;2023-05-17T07:26:34;18.88;;;7.88;;
2177;SDS011;1095;50.992;6.798;2023-05-17T07:29:01;18.50;;;7.35;;
2177;SDS011;1095;50.992;6.798;2023-05-17T07:31:27;19.33;;;7.35;;
2177;SDS011;1095;50.992;6.798;2023-05-17T07:33:54;19.33;;;7.45;;
2177;SDS011;1095;50.992;6.798;2023-05-17T07:36:21;19.08;;;8.63;;
2177;SDS011;1095;50.992;6.798;2023-05-17T07:38:47;15.68;;;7.93;;
2177;SDS011;1095;50.992;6.798;2023-05-17T07:41:15;17.95;;;7.82;;
2177;SDS011;1095;50.992;6.798;2023-05-17T07:43:46;16.30;;;8.07;;
2177;SDS011;1095;50.992;6.798;2023-05-17T07:46:13;17.85;;;8.15;;
2177;SDS011;1095;50.992;6.798;2023-05-17T07:48:39;14.02;;;7.30;;
2177;SDS011;1095;50.992;6.798;2023-05-17T07:51:08;19.98;;;7.13;;
2177;SDS011;1095;50.992;6.798;2023-05-17T07:53:34;15.43;;;7.13;;
2177;SDS011;1095;50.992;6.798;2023-05-17T07:56:01;12.98;;;7.57;;
2177;SDS011;1095;50.992;6.798;2023-05-17T07:58:29;16.00;;;6.97;;
2177;SDS011;1095;50.992;6.798;2023-05-17T08:00:56;13.18;;;6.72;;
2177;SDS011;1095;50.992;6.798;2023-05-17T08:03:22;13.18;;;6.32;;
2177;SDS011;1095;50.992;6.798;2023-05-17T08:05:49;16.38;;;6.95;;
2177;SDS011;1095;50.992;6.798;2023-05-17T08:08:16;15.43;;;7.15;;
2177;SDS011;1095;50.992;6.798;2023-05-17T08:10:42;18.90;;;7.35;;
2177;SDS011;1095;50.992;6.798;2023-05-17T08:13:09;14.90;;;6.75;;
2177;SDS011;1095;50.992;6.798;2023-05-17T08:15:37;15.93;;;6.28;;
2177;SDS011;1095;50.992;6.798;2023-05-17T08:18:03;16.40;;;6.78;;
2177;SDS011;1095;50.992;6.798;2023-05-17T08:20:30;15.73;;;6.45;;
2177;SDS011;1095;50.992;6.798;2023-05-17T08:22:57;11.80;;;5.50;;
2177;SDS011;1095;50.992;6.798;2023-05-17T08:25:23;10.90;;;5.40;;
2177;SDS011;1095;50.992;6.798;2023-05-17T08:27:50;13.93;;;6.32;;
2177;SDS011;1095;50.992;6.798;2023-05-17T08:30:17;16.00;;;5.60;;
2177;SDS011;1095;50.992;6.798;2023-05-17T08:32:48;16.95;;;6.28;;
2177;SDS011;1095;50.992;6.798;2023-05-17T08:35:15;13.32;;;5.90;;
2177;SDS011;1095;50.992;6.798;2023-05-17T08:37:41;13.23;;;5.22;;
2177;SDS011;1095;50.992;6.798;2023-05-17T08:40:08;14.20;;;6.13;;
2177;SDS011;1095;50.992;6.798;2023-05-17T08:42:35;17.05;;;5.00;;
2177;SDS011;1095;50.992;6.798;2023-05-17T08:45:02;13.32;;;4.90;;
2177;SDS011;1095;50.992;6.798;2023-05-17T08:47:30;12.40;;;5.13;;
2177;SDS011;1095;50.992;6.798;2023-05-17T08:49:59;14.77;;;5.03;;
2177;SDS011;1095;50.992;6.798;2023-05-17T08:52:29;10.48;;;4.22;;
2177;SDS011;1095;50.992;6.798;2023-05-17T08:54:56;15.43;;;4.95;;
2177;SDS011;1095;50.992;6.798;2023-05-17T08:57:25;11.15;;;4.57;;
2177;SDS011;1095;50.992;6.798;2023-05-17T08:59:53;11.43;;;5.25;;
2177;SDS011;1095;50.992;6.798;2023-05-17T09:02:21;9.65;;;4.53;;
2177;SDS011;1095;50.992;6.798;2023-05-17T09:04:48;18.42;;;5.38;;
2177;SDS011;1095;50.992;6.798;2023-05-17T09:07:21;15.05;;;4.72;;
2177;SDS011;1095;50.992;6.798;2023-05-17T09:09:49;14.25;;;4.63;;
2177;SDS011;1095;50.992;6.798;2023-05-17T09:12:17;13.50;;;4.90;;
2177;SDS011;1095;50.992;6.798;2023-05-17T09:14:44;17.98;;;5.07;;
2177;SDS011;1095;50.992;6.798;2023-05-17T09:17:12;16.00;;;5.15;;
2177;SDS011;1095;50.992;6.798;2023-05-17T09:19:41;17.05;;;5.53;;
2177;SDS011;1095;50.992;6.798;2023-05-17T09:22:11;16.80;;;5.47;;
2177;SDS011;1095;50.992;6.798;2023-05-17T09:24:40;13.98;;;5.00;;
2177;SDS011;1095;50.992;6.798;2023-05-17T09:27:07;10.55;;;4.70;;
2177;SDS011;1095;50.992;6.798;2023-05-17T09:29:39;15.55;;;5.43;;
2177;SDS011;1095;50.992;6.798;2023-05-17T09:32:10;11.30;;;4.50;;
2177;SDS011;1095;50.992;6.798;2023-05-17T09:34:39;17.88;;;5.13;;
2177;SDS011;1095;50.992;6.798;2023-05-17T09:37:10;14.13;;;4.45;;
2177;SDS011;1095;50.992;6.798;2023-05-17T09:39:40;12.82;;;4.63;;
2177;SDS011;1095;50.992;6.798;2023-05-17T09:42:09;12.60;;;5.10;;
2177;SDS011;1095;50.992;6.798;2023-05-17T09:44:48;12.82;;;5.18;;
2177;SDS011;1095;50.992;6.798;2023-05-17T09:47:21;11.27;;;5.80;;
2177;SDS011;1095;50.992;6.798;2023-05-17T09:49:51;11.38;;;4.78;;
2177;SDS011;1095;50.992;6.798;2023-05-17T09:52:18;11.10;;;5.22;;
2177;SDS011;1095;50.992;6.798;2023-05-17T09:54:53;14.98;;;5.57;;
2177;SDS011;1095;50.992;6.798;2023-05-17T09:57:20;10.82;;;4.72;;
2177;SDS011;1095;50.992;6.798;2023-05-17T09:59:48;17.33;;;5.13;;
2177;SDS011;1095;50.992;6.798;2023-05-17T10:02:19;15.30;;;6.47;;
2177;SDS011;1095;50.992;6.798;2023-05-17T10:04:50;17.50;;;6.50;;
2177;SDS011;1095;50.992;6.798;2023-05-17T10:07:18;13.13;;;5.63;;
2177;SDS011;1095;50.992;6.798;2023-05-17T10:09:47;11.15;;;6.20;;
2177;SDS011;1095;50.992;6.798;2023-05-17T10:12:20;13.88;;;5.90;;
2177;SDS011;1095;50.992;6.798;2023-05-17T10:14:49;12.87;;;5.70;;
2177;SDS011;1095;50.992;6.798;2023-05-17T10:17:16;14.57;;;5.68;;
2177;SDS011;1095;50.992;6.798;2023-05-17T10:19:44;11.60;;;5.95;;
2177;SDS011;1095;50.992;6.798;2023-05-17T10:22:12;18.48;;;6.45;;
2177;SDS011;1095;50.992;6.798;2023-05-17T10:24:39;14.15;;;5.53;;
2177;SDS011;1095;50.992;6.798;2023-05-17T10:27:07;16.35;;;6.22;;
2177;SDS011;1095;50.992;6.798;2023-05-17T10:29:37;15.02;;;6.07;;
2177;SDS011;1095;50.992;6.798;2023-05-17T10:32:05;12.40;;;5.80;;
2177;SDS011;1095;50.992;6.798;2023-05-17T10:34:32;13.95;;;5.47;;
2177;SDS011;1095;50.992;6.798;2023-05-17T10:37:00;14.52;;;5.38;;
2177;SDS011;1095;50.992;6.798;2023-05-17T10:39:28;12.25;;;4.90;;
2177;SDS011;1095;50.992;6.798;2023-05-17T10:41:56;13.90;;;5.55;;
2177;SDS011;1095;50.992;6.798;2023-05-17T10:44:24;14.93;;;5.40;;
2177;SDS011;1095;50.992;6.798;2023-05-17T10:46:54;12.88;;;5.68;;
2177;SDS011;1095;50.992;6.798;2023-05-17T10:49:22;13.15;;;5.70;;
2177;SDS011;1095;50.992;6.798;2023-05-17T10:51:50;12.50;;;5.65;;
2177;SDS011;1095;50.992;6.798;2023-05-17T10:56:56;7.63;;;5.28;;
2177;SDS011;1095;50.992;6.798;2023-05-17T10:59:30;14.55;;;5.70;;
2177;SDS011;1095;50.992;6.798;2023-05-17T11:01:59;13.10;;;5.57;;
2177;SDS011;1095;50.992;6.798;2023-05-17T11:04:31;12.23;;;5.28;;
2177;SDS011;1095;50.992;6.798;2023-05-17T11:09:54;13.82;;;5.97;;
2177;SDS011;1095;50.992;6.798;2023-05-17T11:12:30;12.80;;;5.57;;
2177;SDS011;1095;50.992;6.798;2023-05-17T11:15:00;11.57;;;5.85;;
2177;SDS011;1095;50.992;6.798;2023-05-17T11:17:34;15.45;;;5.70;;
2177;SDS011;1095;50.992;6.798;2023-05-17T11:20:03;14.38;;;5.65;;
2177;SDS011;1095;50.992;6.798;2023-05-17T11:22:33;9.63;;;5.63;;
2177;SDS011;1095;50.992;6.798;2023-05-17T11:25:04;10.50;;;5.63;;
2177;SDS011;1095;50.992;6.798;2023-05-17T11:27:36;12.23;;;5.07;;
2177;SDS011;1095;50.992;6.798;2023-05-17T11:30:08;11.73;;;5.40;;
2177;SDS011;1095;50.992;6.798;2023-05-17T11:32:46;12.77;;;5.80;;
2177;SDS011;1095;50.992;6.798;2023-05-17T11:35:15;12.65;;;5.03;;
2177;SDS011;1095;50.992;6.798;2023-05-17T11:37:43;12.02;;;4.85;;
2177;SDS011;1095;50.992;6.798;2023-05-17T11:40:11;13.57;;;5.25;;
2177;SDS011;1095;50.992;6.798;2023-05-17T11:42:39;14.13;;;5.47;;
2177;SDS011;1095;50.992;6.798;2023-05-17T11:45:06;10.57;;;4.88;;
2177;SDS011;1095;50.992;6.798;2023-05-17T11:47:37;10.70;;;4.70;;
2177;SDS011;1095;50.992;6.798;2023-05-17T11:50:06;7.88;;;4.00;;
2177;SDS011;1095;50.992;6.798;2023-05-17T11:52:34;12.82;;;4.40;;
2177;SDS011;1095;50.992;6.798;2023-05-17T11:55:04;9.73;;;4.53;;
2177;SDS011;1095;50.992;6.798;2023-05-17T11:57:32;12.15;;;4.45;;
2177;SDS011;1095;50.992;6.798;2023-05-17T12:00:00;9.77;;;4.70;;
2177;SDS011;1095;50.992;6.798;2023-05-17T12:02:29;14.13;;;4.95;;
2177;SDS011;1095;50.992;6.798;2023-05-17T12:04:57;13.13;;;4.53;;
2177;SDS011;1095;50.992;6.798;2023-05-17T12:07:25;15.50;;;5.40;;
2177;SDS011;1095;50.992;6.798;2023-05-17T12:09:53;17.67;;;6.25;;
2177;SDS011;1095;50.992;6.798;2023-05-17T12:12:20;11.23;;;5.15;;
2177;SDS011;1095;50.992;6.798;2023-05-17T12:14:47;13.93;;;5.80;;
2177;SDS011;1095;50.992;6.798;2023-05-17T12:17:17;12.65;;;5.85;;
2177;SDS011;1095;50.992;6.798;2023-05-17T12:19:52;9.85;;;4.90;;
2177;SDS011;1095;50.992;6.798;2023-05-17T12:22:19;14.40;;;6.20;;
2177;SDS011;1095;50.992;6.798;2023-05-17T12:24:47;13.05;;;6.07;;
2177;SDS011;1095;50.992;6.798;2023-05-17T12:27:14;11.57;;;7.07;;
2177;SDS011;1095;50.992;6.798;2023-05-17T12:29:50;12.20;;;6.00;;
2177;SDS011;1095;50.992;6.798;2023-05-17T12:32:16;9.27;;;5.45;;
2177;SDS011;1095;50.992;6.798;2023-05-17T12:34:44;10.85;;;5.63;;
2177;SDS011;1095;50.992;6.798;2023-05-17T12:37:11;13.10;;;5.70;;
2177;SDS011;1095;50.992;6.798;2023-05-17T12:39:38;9.82;;;5.35;;
2177;SDS011;1095;50.992;6.798;2023-05-17T12:42:07;12.23;;;5.25;;
2177;SDS011;1095;50.992;6.798;2023-05-17T12:44:34;11.63;;;6.13;;
2177;SDS011;1095;50.992;6.798;2023-05-17T12:47:01;13.02;;;5.55;;
2177;SDS011;1095;50.992;6.798;2023-05-17T12:49:28;9.25;;;4.85;;
2177;SDS011;1095;50.992;6.798;2023-05-17T12:51:54;11.15;;;5.13;;
2177;SDS011;1095;50.992;6.798;2023-05-17T12:54:25;8.77;;;4.70;;
2177;SDS011;1095;50.992;6.798;2023-05-17T12:56:55;10.10;;;5.05;;
2177;SDS011;1095;50.992;6.798;2023-05-17T12:59:23;11.20;;;5.10;;
2177;SDS011;1095;50.992;6.798;2023-05-17T13:01:50;9.30;;;5.40;;
2177;SDS011;1095;50.992;6.798;2023-05-17T13:04:19;10.80;;;5.60;;
2177;SDS011;1095;50.992;6.798;2023-05-17T13:06:54;11.50;;;5.80;;
2177;SDS011;1095;50.992;6.798;2023-05-17T13:09:22;8.23;;;5.40;;
2177;SDS011;1095;50.992;6.798;2023-05-17T13:11:50;11.07;;;5.47;;
2177;SDS011;1095;50.992;6.798;2023-05-17T13:14:36;10.02;;;5.45;;
2177;SDS011;1095;50.992;6.798;2023-05-17T13:17:03;11.00;;;5.85;;
2177;SDS011;1095;50.992;6.798;2023-05-17T13:19:31;12.38;;;6.13;;
2177;SDS011;1095;50.992;6.798;2023-05-17T13:21:59;16.67;;;5.20;;
2177;SDS011;1095;50.992;6.798;2023-05-17T13:24:26;9.50;;;6.25;;
2177;SDS011;1095;50.992;6.798;2023-05-17T13:26:53;14.43;;;5.35;;
2177;SDS011;1095;50.992;6.798;2023-05-17T13:29:19;15.18;;;6.05;;
2177;SDS011;1095;50.992;6.798;2023-05-17T13:31:47;10.38;;;6.13;;
2177;SDS011;1095;50.992;6.798;2023-05-17T13:34:14;8.48;;;4.10;;
2177;SDS011;1095;50.992;6.798;2023-05-17T13:36:41;11.85;;;4.88;;
2177;SDS011;1095;50.992;6.798;2023-05-17T13:39:08;9.60;;;5.90;;
2177;SDS011;1095;50.992;6.798;2023-05-17T13:41:34;7.93;;;5.20;;
2177;SDS011;1095;50.992;6.798;2023-05-17T13:44:01;12.73;;;4.80;;
2177;SDS011;1095;50.992;6.798;2023-05-17T13:46:29;11.73;;;5.28;;
2177;SDS011;1095;50.992;6.798;2023-05-17T13:48:57;14.82;;;6.05;;
2177;SDS011;1095;50.992;6.798;2023-05-17T13:51:24;11.45;;;5.47;;
2177;SDS011;1095;50.992;6.798;2023-05-17T13:53:50;9.07;;;4.90;;
2177;SDS011;1095;50.992;6.798;2023-05-17T13:56:17;10.68;;;4.70;;
2177;SDS011;1095;50.992;6.798;2023-05-17T13:58:44;14.48;;;5.00;;
2177;SDS011;1095;50.992;6.798;2023-05-17T14:01:10;10.25;;;5.45;;
2177;SDS011;1095;50.992;6.798;2023-05-17T14:03:37;14.60;;;4.90;;
2177;SDS011;1095;50.992;6.798;2023-05-17T14:06:05;8.52;;;5.15;;
2177;SDS011;1095;50.992;6.798;2023-05-17T14:08:32;9.30;;;4.60;;
2177;SDS011;1095;50.992;6.798;2023-05-17T14:10:59;12.63;;;5.20;;
2177;SDS011;1095;50.992;6.798;2023-05-17T14:13:27;11.38;;;5.10;;
2177;SDS011;1095;50.992;6.798;2023-05-17T14:15:53;10.18;;;4.50;;
2177;SDS011;1095;50.992;6.798;2023-05-17T14:18:20;11.52;;;5.47;;
2177;SDS011;1095;50.992;6.798;2023-05-17T14:20:47;14.32;;;5.88;;
2177;SDS011;1095;50.992;6.798;2023-05-17T14:23:15;13.77;;;4.82;;
2177;SDS011;1095;50.992;6.798;2023-05-17T14:25:41;11.02;;;5.88;;
2177;SDS011;1095;50.992;6.798;2023-05-17T14:28:08;11.90;;;6.15;;
2177;SDS011;1095;50.992;6.798;2023-05-17T14:30:36;10.25;;;5.45;;
2177;SDS011;1095;50.992;6.798;2023-05-17T14:33:02;10.75;;;5.30;;
2177;SDS011;1095;50.992;6.798;2023-05-17T14:35:29;10.00;;;4.95;;
2177;SDS011;1095;50.992;6.798;2023-05-17T14:37:56;11.00;;;5.45;;
2177;SDS011;1095;50.992;6.798;2023-05-17T14:40:24;11.45;;;5.25;;
2177;SDS011;1095;50.992;6.798;2023-05-17T14:42:51;10.18;;;5.20;;
2177;SDS011;1095;50.992;6.798;2023-05-17T14:45:17;12.75;;;5.03;;
2177;SDS011;1095;50.992;6.798;2023-05-17T14:47:44;12.32;;;4.75;;
2177;SDS011;1095;50.992;6.798;2023-05-17T14:50:11;10.25;;;5.57;;
2177;SDS011;1095;50.992;6.798;2023-05-17T14:52:37;15.98;;;6.18;;
2177;SDS011;1095;50.992;6.798;2023-05-17T14:55:04;12.90;;;5.40;;
2177;SDS011;1095;50.992;6.798;2023-05-17T14:57:34;12.10;;;5.55;;
2177;SDS011;1095;50.992;6.798;2023-05-17T15:00:04;10.93;;;6.18;;
2177;SDS011;1095;50.992;6.798;2023-05-17T15:02:34;9.65;;;5.68;;
2177;SDS011;1095;50.992;6.798;2023-05-17T15:05:01;10.40;;;5.70;;
2177;SDS011;1095;50.992;6.798;2023-05-17T15:07:28;9.25;;;5.38;;
2177;SDS011;1095;50.992;6.798;2023-05-17T15:09:55;11.25;;;5.82;;
2177;SDS011;1095;50.992;6.798;2023-05-17T15:12:22;11.10;;;5.25;;